logo
Search for airport 
image banner adimage banner adimage banner ad
image banner ad

FLMI - Munwa Nkozi

Located in , Zambia

ICAO - , IATA -

Data provided by Airmate  

General information

Coordinates: S13°44'21" E29°24'47"
Elevation is 4271 feet MSL.
 
View others Airports in Central Province

Operational data

Special qualification required
Current time UTC:
Current local time:
Weather at : - ( 0 km )
METAR: TJIG 202245Z 08010KT 10SM SCT030 SCT070 27/21 A2997
View NOTAMs / SUP AIP / TFR affecting this airport [VIEW]
Communications frequencies: [VIEW]

Runways:

Airport contact information

Address: Zambia

Satellite view of FLMI